Time;durP1;ratioP1;P1;durP2;ratioP2;P2;SDS_P1;SDS_P2;PMS_P1;PMS_P2;Temp;Humidity;BMP_temperature;BMP_pressure;BME280_temperature;BME280_humidity;BME280_pressure;Samples;Min_cycle;Max_cycle;Signal;HPM_P1;HPM_P2
2022/03/27 00:00:59;;;;;;;13.80;6.90;;;2.70;82.50;;;;;;2087804;28;20184;-68
2022/03/27 00:02:00;;;;;;;15.37;6.93;;;2.60;81.30;;;;;;2089868;28;20172;-68
2022/03/27 00:03:01;;;;;;;13.37;6.13;;;2.60;81.50;;;;;;2097006;28;20241;-68
2022/03/27 00:04:02;;;;;;;11.45;6.20;;;2.60;81.60;;;;;;2094557;28;20187;-70
2022/03/27 00:05:03;;;;;;;13.63;7.27;;;2.60;81.60;;;;;;2088244;28;20295;-69
2022/03/27 00:06:04;;;;;;;13.52;6.72;;;2.60;81.30;;;;;;2087564;28;20230;-69
2022/03/27 00:07:04;;;;;;;10.50;6.90;;;2.60;80.40;;;;;;2087506;28;20246;-69
2022/03/27 00:08:05;;;;;;;17.10;6.87;;;2.60;80.30;;;;;;2088875;28;20182;-69
2022/03/27 00:09:06;;;;;;;13.60;6.87;;;2.60;80.10;;;;;;2088784;28;20566;-68
2022/03/27 00:10:08;;;;;;;15.30;7.67;;;2.70;79.90;;;;;;2088633;28;20821;-66
2022/03/27 00:11:24;;;;;;;14.38;6.15;;;2.70;79.70;;;;;;2087337;28;20177;-68
2022/03/27 00:12:24;;;;;;;13.52;6.53;;;2.70;79.70;;;;;;2088368;28;20217;-68
2022/03/27 00:13:25;;;;;;;10.47;5.93;;;2.70;79.70;;;;;;2088328;28;20218;-68
2022/03/27 00:14:26;;;;;;;11.13;6.77;;;2.60;79.70;;;;;;2088897;28;20203;-68
2022/03/27 00:15:26;;;;;;;14.23;6.80;;;2.60;80.20;;;;;;2088479;28;20180;-68
2022/03/27 00:16:28;;;;;;;14.73;7.33;;;2.60;80.50;;;;;;2088219;28;20187;-68
2022/03/27 00:17:33;;;;;;;14.32;7.03;;;2.50;81.00;;;;;;2088343;28;20663;-68
2022/03/27 00:18:33;;;;;;;15.93;7.25;;;2.50;81.10;;;;;;2088557;28;20247;-68
2022/03/27 00:19:34;;;;;;;16.53;7.80;;;2.50;81.30;;;;;;2088296;28;20709;-68
2022/03/27 00:20:35;;;;;;;11.63;6.90;;;2.50;81.40;;;;;;2088933;28;20557;-68
2022/03/27 00:21:35;;;;;;;15.00;7.37;;;2.40;81.60;;;;;;2087283;28;21010;-68
2022/03/27 00:22:37;;;;;;;12.00;6.03;;;2.40;81.70;;;;;;2080042;28;20200;-68
2022/03/27 00:23:37;;;;;;;12.73;7.07;;;2.40;81.70;;;;;;2077361;28;20227;-68
2022/03/27 00:24:38;;;;;;;15.07;7.37;;;2.40;81.60;;;;;;2085921;28;20623;-68
2022/03/27 00:25:39;;;;;;;12.10;7.13;;;2.40;81.90;;;;;;2088481;28;20215;-68
2022/03/27 00:26:40;;;;;;;13.23;7.20;;;2.40;82.00;;;;;;2088799;28;20172;-68
2022/03/27 00:27:41;;;;;;;11.35;6.57;;;2.40;82.10;;;;;;2088603;28;20419;-68
2022/03/27 00:28:42;;;;;;;10.33;5.90;;;2.40;82.20;;;;;;2088775;28;20206;-68
2022/03/27 00:29:43;;;;;;;14.57;7.45;;;2.30;82.30;;;;;;2088094;28;20203;-68
2022/03/27 00:30:44;;;;;;;15.20;6.90;;;2.30;82.20;;;;;;2088282;28;20185;-68
2022/03/27 00:31:44;;;;;;;13.37;6.20;;;2.30;82.90;;;;;;2087551;28;20188;-68
2022/03/27 00:32:45;;;;;;;13.03;6.60;;;2.30;82.90;;;;;;2080026;28;20228;-68
2022/03/27 00:33:47;;;;;;;17.33;8.07;;;2.30;83.10;;;;;;2088021;28;20746;-68
2022/03/27 00:34:48;;;;;;;11.95;5.93;;;2.30;82.80;;;;;;2087709;28;20687;-68
2022/03/27 00:35:48;;;;;;;15.07;7.35;;;2.30;82.80;;;;;;2088042;28;20215;-68
2022/03/27 00:36:49;;;;;;;13.63;6.23;;;2.30;82.90;;;;;;2088565;28;20173;-68
2022/03/27 00:37:52;;;;;;;14.35;7.60;;;2.30;83.20;;;;;;2088106;28;20184;-68
2022/03/27 00:38:52;;;;;;;13.73;6.95;;;2.30;83.80;;;;;;2087972;28;20231;-68
2022/03/27 00:39:53;;;;;;;22.43;7.77;;;2.30;83.90;;;;;;2088569;28;20180;-67
2022/03/27 00:40:54;;;;;;;18.10;7.00;;;2.20;83.90;;;;;;2088565;28;20180;-71
2022/03/27 00:41:55;;;;;;;13.25;6.35;;;2.20;83.90;;;;;;2088956;28;20674;-69
2022/03/27 00:42:56;;;;;;;14.03;6.50;;;2.20;84.10;;;;;;2081327;28;20189;-69
2022/03/27 00:43:57;;;;;;;15.87;7.03;;;2.20;84.30;;;;;;2089874;28;20180;-69
2022/03/27 00:44:57;;;;;;;12.20;7.07;;;2.10;84.60;;;;;;2090547;28;20196;-69
2022/03/27 00:45:58;;;;;;;11.73;6.30;;;2.10;84.80;;;;;;2091006;28;20415;-69
2022/03/27 00:46:59;;;;;;;14.20;6.63;;;2.00;84.90;;;;;;2090620;28;20191;-69
2022/03/27 00:48:00;;;;;;;12.43;6.50;;;1.90;85.00;;;;;;2090982;28;20635;-69
2022/03/27 00:49:01;;;;;;;11.83;6.67;;;2.00;85.40;;;;;;2090730;28;20200;-69
2022/03/27 00:50:02;;;;;;;13.40;6.40;;;1.90;85.60;;;;;;2090864;28;20176;-69
2022/03/27 00:51:04;;;;;;;12.93;7.60;;;1.90;85.60;;;;;;2090504;28;20592;-69
2022/03/27 00:52:05;;;;;;;14.45;6.50;;;1.90;85.70;;;;;;2090693;28;20181;-68
2022/03/27 00:53:06;;;;;;;13.65;6.70;;;1.90;85.90;;;;;;2090622;28;20544;-69
2022/03/27 00:54:07;;;;;;;13.10;6.30;;;2.00;85.60;;;;;;2090776;28;20188;-68
2022/03/27 00:55:08;;;;;;;11.63;6.60;;;2.00;85.30;;;;;;2090302;28;20674;-68
2022/03/27 00:56:09;;;;;;;12.20;7.22;;;2.00;84.50;;;;;;2090222;28;20168;-68
2022/03/27 00:57:09;;;;;;;12.07;6.93;;;2.00;84.40;;;;;;2089990;28;20291;-68
2022/03/27 00:58:12;;;;;;;16.10;7.13;;;2.10;84.00;;;;;;2090254;28;20259;-68
2022/03/27 00:59:13;;;;;;;12.32;6.63;;;2.10;83.80;;;;;;2090162;28;20241;-68
2022/03/27 01:00:39;;;;;;;11.27;6.65;;;2.10;84.00;;;;;;2089516;28;20198;-68
2022/03/27 01:01:42;;;;;;;10.82;5.57;;;2.10;84.30;;;;;;2089096;28;20559;-68
2022/03/27 01:02:43;;;;;;;9.98;5.60;;;2.10;84.70;;;;;;2082145;28;20290;-68
2022/03/27 01:03:47;;;;;;;11.10;6.40;;;2.00;84.80;;;;;;2090204;28;20260;-68
2022/03/27 01:04:48;;;;;;;11.57;6.60;;;2.00;85.10;;;;;;2090005;28;20250;-68
2022/03/27 01:05:49;;;;;;;11.97;6.20;;;2.00;85.20;;;;;;2089961;28;20188;-68
2022/03/27 01:06:50;;;;;;;17.40;7.60;;;2.00;85.10;;;;;;2090072;28;20247;-69
2022/03/27 01:07:50;;;;;;;14.30;6.63;;;1.90;85.10;;;;;;2089852;28;20676;-69
2022/03/27 01:10:10;;;;;;;13.35;5.80;;;1.90;86.10;;;;;;2090842;28;20197;-68
2022/03/27 01:11:21;;;;;;;13.73;7.00;;;1.90;86.90;;;;;;2090158;28;20198;-68
2022/03/27 01:12:32;;;;;;;14.18;6.65;;;1.80;87.30;;;;;;2090832;28;20172;-68
2022/03/27 01:13:35;;;;;;;12.65;5.80;;;1.80;87.50;;;;;;2089665;28;20188;-68
2022/03/27 01:14:36;;;;;;;19.45;8.63;;;1.80;87.20;;;;;;2089795;28;20705;-68
2022/03/27 01:15:57;;;;;;;13.40;6.90;;;1.80;87.30;;;;;;2090696;28;20185;-68
2022/03/27 01:17:08;;;;;;;12.05;6.60;;;1.80;88.00;;;;;;2089892;28;20168;-66
2022/03/27 01:18:09;;;;;;;14.82;6.50;;;1.80;88.10;;;;;;2089898;28;20172;-69
2022/03/27 01:19:14;;;;;;;10.30;6.07;;;1.80;88.00;;;;;;2090775;28;20530;-69
2022/03/27 01:20:29;;;;;;;14.45;7.25;;;1.70;88.20;;;;;;2089737;28;20184;-69
2022/03/27 01:21:31;;;;;;;10.68;6.20;;;1.80;89.40;;;;;;2089686;28;20173;-69
2022/03/27 01:22:32;;;;;;;12.05;6.88;;;1.80;89.70;;;;;;2089887;28;20267;-69
2022/03/27 01:23:34;;;;;;;15.25;6.18;;;1.80;89.20;;;;;;2089966;28;20272;-69
2022/03/27 01:24:34;;;;;;;12.88;6.60;;;1.80;88.80;;;;;;2089983;28;20196;-69
2022/03/27 01:25:41;;;;;;;14.13;6.90;;;1.70;88.80;;;;;;2090558;28;20188;-69
2022/03/27 01:26:42;;;;;;;12.68;6.95;;;1.70;88.80;;;;;;2089250;28;20634;-69
2022/03/27 01:27:43;;;;;;;14.20;7.22;;;1.70;88.90;;;;;;2089314;28;20247;-69
2022/03/27 01:28:44;;;;;;;16.30;7.33;;;1.70;89.10;;;;;;2088995;28;20184;-69
2022/03/27 01:29:45;;;;;;;15.20;7.65;;;1.60;89.00;;;;;;2089757;28;20176;-69
2022/03/27 01:30:46;;;;;;;13.93;6.45;;;1.60;89.00;;;;;;2089238;28;20180;-69
2022/03/27 01:31:47;;;;;;;12.87;6.93;;;1.60;89.50;;;;;;2088714;28;20176;-69
2022/03/27 01:32:51;;;;;;;14.27;6.88;;;1.60;89.30;;;;;;2089225;28;20191;-68
2022/03/27 01:33:51;;;;;;;12.70;6.38;;;1.60;89.50;;;;;;2089237;28;20705;-69
2022/03/27 01:34:52;;;;;;;12.03;7.17;;;1.60;89.50;;;;;;2089047;28;20203;-69
2022/03/27 01:35:53;;;;;;;15.45;7.35;;;1.60;89.30;;;;;;2081131;28;20180;-69
2022/03/27 01:36:54;;;;;;;14.93;7.67;;;1.60;89.10;;;;;;2088860;28;20192;-69
2022/03/27 01:37:55;;;;;;;14.93;7.17;;;1.60;89.10;;;;;;2089334;28;20177;-69
2022/03/27 01:38:57;;;;;;;13.60;6.80;;;1.60;89.60;;;;;;2089055;28;20218;-69
2022/03/27 01:39:57;;;;;;;13.18;6.78;;;1.50;89.60;;;;;;2089114;28;20687;-69
2022/03/27 01:40:58;;;;;;;10.40;6.17;;;1.50;90.00;;;;;;2089034;28;20180;-69
2022/03/27 01:41:59;;;;;;;11.93;6.30;;;1.50;89.90;;;;;;2088619;28;20239;-69
2022/03/27 01:43:00;;;;;;;11.60;6.20;;;1.50;90.00;;;;;;2088406;28;20758;-68
2022/03/27 01:44:01;;;;;;;13.73;7.00;;;1.50;90.00;;;;;;2089363;28;20435;-69
2022/03/27 01:45:02;;;;;;;12.95;6.00;;;1.50;90.10;;;;;;2080838;28;20201;-69
2022/03/27 01:46:02;;;;;;;11.45;5.82;;;1.50;90.20;;;;;;2080947;28;20185;-69
2022/03/27 01:47:04;;;;;;;12.87;6.00;;;1.50;90.20;;;;;;2089033;28;20674;-69
2022/03/27 01:48:05;;;;;;;11.63;6.28;;;1.50;90.30;;;;;;2089725;28;20799;-69
2022/03/27 01:49:09;;;;;;;11.15;6.25;;;1.60;90.10;;;;;;2089645;28;20223;-69
2022/03/27 01:50:10;;;;;;;14.07;6.68;;;1.60;89.80;;;;;;2089758;28;20910;-69
2022/03/27 01:51:10;;;;;;;16.70;6.78;;;1.60;89.10;;;;;;2088394;28;20188;-69
2022/03/27 01:52:11;;;;;;;12.30;5.80;;;1.70;88.70;;;;;;2089088;28;20184;-69
2022/03/27 01:53:12;;;;;;;14.50;6.67;;;1.70;88.80;;;;;;2088050;28;20190;-68
2022/03/27 01:54:13;;;;;;;15.07;6.40;;;1.70;89.70;;;;;;2089696;28;20231;-69
2022/03/27 01:55:16;;;;;;;12.00;6.30;;;1.70;88.20;;;;;;2089704;28;20204;-69
2022/03/27 01:56:17;;;;;;;16.05;6.50;;;1.70;87.80;;;;;;2088801;28;20279;-69
2022/03/27 01:57:18;;;;;;;11.03;5.47;;;1.70;87.50;;;;;;2089438;28;20212;-69
2022/03/27 01:58:19;;;;;;;15.40;6.30;;;1.70;87.20;;;;;;2088980;28;20184;-69
2022/03/27 01:59:21;;;;;;;15.00;6.70;;;1.70;87.20;;;;;;2080930;28;20180;-69
2022/03/27 02:00:21;;;;;;;12.50;6.43;;;1.70;87.50;;;;;;2089315;28;20184;-69
2022/03/27 02:01:22;;;;;;;17.40;6.63;;;1.60;87.70;;;;;;2087908;28;20458;-69
2022/03/27 02:02:26;;;;;;;13.50;6.67;;;1.60;87.90;;;;;;2089029;28;20168;-69
2022/03/27 02:03:27;;;;;;;13.75;6.25;;;1.50;88.20;;;;;;2089017;28;20250;-69
2022/03/27 02:04:28;;;;;;;11.60;5.53;;;1.50;88.20;;;;;;2089728;28;20192;-69
2022/03/27 02:05:31;;;;;;;11.90;5.40;;;1.50;88.20;;;;;;2089618;28;20674;-69
2022/03/27 02:06:33;;;;;;;15.15;6.18;;;1.50;88.00;;;;;;2089098;28;20424;-69
2022/03/27 02:07:38;;;;;;;12.50;5.55;;;1.50;87.80;;;;;;2081044;28;20243;-69
2022/03/27 02:08:40;;;;;;;12.45;6.05;;;1.50;88.00;;;;;;2081532;28;20185;-69
2022/03/27 02:09:40;;;;;;;12.60;6.35;;;1.40;88.60;;;;;;2088982;28;20230;-69
2022/03/27 02:10:41;;;;;;;23.47;6.20;;;1.40;89.30;;;;;;2089494;28;20189;-69
2022/03/27 02:11:43;;;;;;;11.13;6.63;;;1.40;89.50;;;;;;2089037;28;20180;-69
2022/03/27 02:12:43;;;;;;;12.18;5.90;;;1.40;89.90;;;;;;2089673;28;20237;-68
2022/03/27 02:13:44;;;;;;;16.47;6.70;;;1.40;90.30;;;;;;2089707;28;20181;-69
2022/03/27 02:14:45;;;;;;;14.67;6.83;;;1.30;90.40;;;;;;2089792;28;20200;-69
2022/03/27 02:15:46;;;;;;;12.97;5.77;;;1.30;90.20;;;;;;2089787;28;20180;-69
2022/03/27 02:16:47;;;;;;;15.05;6.22;;;1.30;90.40;;;;;;2089652;28;20185;-69
2022/03/27 02:17:48;;;;;;;13.40;6.07;;;1.30;90.50;;;;;;2089113;28;20671;-69
2022/03/27 02:18:50;;;;;;;10.47;5.97;;;1.20;90.60;;;;;;2088969;28;20177;-69
2022/03/27 02:19:50;;;;;;;17.23;6.30;;;1.20;90.80;;;;;;2089601;28;20611;-69
2022/03/27 02:20:51;;;;;;;14.70;7.47;;;1.20;91.00;;;;;;2089603;28;20191;-69
2022/03/27 02:21:52;;;;;;;15.53;6.40;;;1.10;91.20;;;;;;2088994;28;20241;-69
2022/03/27 02:22:52;;;;;;;10.87;5.83;;;1.00;91.30;;;;;;2088685;28;20679;-69
2022/03/27 02:23:53;;;;;;;10.80;5.43;;;1.00;91.30;;;;;;2088859;28;20177;-69
2022/03/27 02:24:54;;;;;;;16.97;6.30;;;1.10;91.50;;;;;;2089532;28;20196;-69
2022/03/27 02:25:56;;;;;;;12.67;6.67;;;1.10;91.50;;;;;;2089633;28;20176;-69
2022/03/27 02:26:57;;;;;;;15.32;7.00;;;1.00;91.60;;;;;;2088837;28;20238;-69
2022/03/27 02:27:58;;;;;;;13.27;5.93;;;1.10;91.60;;;;;;2088986;28;20749;-69
2022/03/27 02:28:58;;;;;;;13.73;6.53;;;1.00;91.70;;;;;;2089415;28;20191;-69
2022/03/27 02:29:59;;;;;;;13.57;6.43;;;1.00;91.70;;;;;;2089606;28;20544;-69
2022/03/27 02:31:01;;;;;;;15.43;7.27;;;1.00;91.90;;;;;;2089445;28;20230;-69
2022/03/27 02:32:02;;;;;;;13.73;6.43;;;1.00;91.80;;;;;;2088643;28;20202;-69
2022/03/27 02:33:03;;;;;;;16.17;6.43;;;1.00;91.80;;;;;;2088631;28;20257;-69
2022/03/27 02:34:03;;;;;;;14.00;6.73;;;1.00;91.90;;;;;;2089466;28;20419;-69
2022/03/27 02:35:04;;;;;;;11.70;5.47;;;1.00;91.90;;;;;;2088838;28;20199;-69
2022/03/27 02:36:08;;;;;;;10.85;5.95;;;1.00;91.90;;;;;;2088718;28;20234;-69
2022/03/27 02:37:08;;;;;;;12.73;6.32;;;1.00;91.90;;;;;;2080674;28;20646;-69
2022/03/27 02:38:10;;;;;;;16.37;6.30;;;1.00;91.80;;;;;;2088969;28;20177;-69
2022/03/27 02:39:10;;;;;;;13.25;6.45;;;1.00;91.60;;;;;;2088900;28;20971;-69
2022/03/27 02:40:11;;;;;;;10.83;6.10;;;1.00;92.20;;;;;;2088904;28;20278;-69
2022/03/27 02:41:12;;;;;;;12.53;6.50;;;0.90;91.70;;;;;;2088188;28;20209;-68
2022/03/27 02:42:13;;;;;;;12.13;6.17;;;0.90;92.00;;;;;;2088942;28;20426;-69
2022/03/27 02:43:14;;;;;;;16.95;7.63;;;1.00;92.10;;;;;;2088845;28;20209;-69
2022/03/27 02:44:15;;;;;;;13.33;7.50;;;0.90;92.20;;;;;;2088590;28;20685;-69
2022/03/27 02:45:16;;;;;;;18.13;6.65;;;0.90;92.30;;;;;;2089413;28;20241;-69
2022/03/27 02:46:17;;;;;;;14.13;6.73;;;0.90;92.50;;;;;;2089574;28;20184;-68
2022/03/27 02:47:17;;;;;;;12.40;6.10;;;0.90;92.50;;;;;;2089218;28;20191;-69
2022/03/27 02:48:18;;;;;;;14.57;6.80;;;0.90;92.70;;;;;;2088825;28;20234;-69
2022/03/27 02:49:20;;;;;;;13.63;6.30;;;0.90;92.80;;;;;;2088713;28;20180;-69
2022/03/27 02:50:20;;;;;;;15.70;6.35;;;0.80;92.80;;;;;;2088818;28;20191;-69
2022/03/27 02:51:21;;;;;;;13.73;5.50;;;0.80;93.00;;;;;;2088128;28;20695;-69
2022/03/27 02:52:22;;;;;;;15.70;7.23;;;0.80;93.00;;;;;;2088912;28;20241;-70
2022/03/27 02:53:23;;;;;;;13.17;6.53;;;0.80;93.30;;;;;;2088642;28;20683;-69
2022/03/27 02:54:24;;;;;;;11.77;6.00;;;0.80;93.20;;;;;;2089409;28;20187;-69
2022/03/27 02:55:25;;;;;;;18.40;6.80;;;0.90;93.10;;;;;;2088440;28;20458;-68
2022/03/27 02:56:26;;;;;;;13.82;6.00;;;0.80;92.80;;;;;;2080717;28;20181;-69
2022/03/27 02:57:27;;;;;;;15.20;7.40;;;0.80;92.90;;;;;;2080267;28;20567;-69
2022/03/27 02:58:27;;;;;;;12.03;6.70;;;0.80;93.00;;;;;;2088707;28;20199;-69
2022/03/27 02:59:28;;;;;;;14.33;6.50;;;0.80;93.00;;;;;;2089440;28;20194;-69
2022/03/27 03:00:29;;;;;;;14.53;6.73;;;0.70;93.10;;;;;;2089265;28;20251;-69
2022/03/27 03:01:30;;;;;;;11.43;6.00;;;0.70;93.10;;;;;;2088251;28;20181;-68
2022/03/27 03:02:31;;;;;;;18.02;7.65;;;0.70;93.30;;;;;;2088468;28;20879;-69
2022/03/27 03:03:32;;;;;;;12.10;5.77;;;0.80;93.30;;;;;;2089397;28;20198;-70
2022/03/27 03:04:34;;;;;;;12.60;7.03;;;0.80;93.20;;;;;;2089126;28;20203;-69
2022/03/27 03:05:38;;;;;;;13.40;6.25;;;0.80;93.00;;;;;;2088984;28;20187;-69
2022/03/27 03:06:42;;;;;;;12.80;5.90;;;0.80;92.70;;;;;;2088468;28;20179;-69
2022/03/27 03:07:42;;;;;;;14.13;6.55;;;0.80;92.70;;;;;;2080650;28;20181;-69
2022/03/27 03:08:43;;;;;;;14.27;6.13;;;0.80;92.50;;;;;;2088657;28;20191;-69
2022/03/27 03:09:44;;;;;;;14.67;6.07;;;0.80;92.40;;;;;;2089352;28;20207;-69
2022/03/27 03:10:45;;;;;;;11.73;5.53;;;0.70;92.50;;;;;;2088758;28;20588;-69
2022/03/27 03:11:46;;;;;;;12.30;6.97;;;0.70;92.60;;;;;;2088201;28;20176;-69
2022/03/27 03:12:46;;;;;;;14.10;7.53;;;0.70;92.60;;;;;;2088516;28;20191;-68
2022/03/27 03:13:49;;;;;;;11.90;5.83;;;0.80;92.60;;;;;;2089256;28;20187;-69
2022/03/27 03:14:55;;;;;;;12.35;6.35;;;0.80;92.70;;;;;;2089463;28;20683;-69
2022/03/27 03:15:56;;;;;;;12.98;6.13;;;0.70;92.80;;;;;;2089336;28;20170;-69
2022/03/27 03:16:57;;;;;;;10.48;5.45;;;0.70;92.50;;;;;;2088523;28;20709;-68
2022/03/27 03:17:58;;;;;;;14.05;7.75;;;0.70;92.70;;;;;;2080530;28;20299;-68
2022/03/27 03:18:59;;;;;;;15.83;6.60;;;0.70;93.00;;;;;;2088654;28;20183;-69
2022/03/27 03:20:00;;;;;;;11.87;6.33;;;0.70;92.90;;;;;;2088552;28;20179;-69
2022/03/27 03:21:01;;;;;;;10.97;5.97;;;0.70;92.80;;;;;;2080199;28;20172;-68
2022/03/27 03:22:03;;;;;;;10.82;5.72;;;0.60;93.00;;;;;;2088281;28;20190;-69
2022/03/27 03:23:03;;;;;;;11.50;6.07;;;0.60;93.60;;;;;;2088394;28;20275;-69
2022/03/27 03:24:06;;;;;;;14.57;6.43;;;0.70;93.10;;;;;;2088604;28;20176;-69
2022/03/27 03:25:08;;;;;;;13.05;5.50;;;0.70;92.90;;;;;;2088368;28;20238;-68
2022/03/27 03:26:09;;;;;;;14.73;6.22;;;0.60;93.00;;;;;;2088741;28;20702;-69
2022/03/27 03:27:10;;;;;;;12.60;6.57;;;0.60;93.00;;;;;;2089042;28;20179;-69
2022/03/27 03:28:10;;;;;;;16.90;7.00;;;0.60;93.10;;;;;;2088782;28;20637;-69
2022/03/27 03:29:11;;;;;;;14.50;6.70;;;0.60;92.90;;;;;;2088456;28;20186;-69
2022/03/27 03:30:12;;;;;;;16.20;6.97;;;0.60;93.00;;;;;;2089195;28;20191;-69
2022/03/27 03:31:12;;;;;;;13.60;7.07;;;0.60;93.00;;;;;;2088478;28;20180;-69
2022/03/27 03:32:13;;;;;;;17.07;6.57;;;0.60;93.00;;;;;;2088784;28;20188;-69
2022/03/27 03:33:14;;;;;;;16.53;6.70;;;0.60;92.90;;;;;;2088974;28;20192;-69
2022/03/27 03:34:15;;;;;;;12.03;5.83;;;0.60;92.90;;;;;;2089137;28;20177;-69
2022/03/27 03:35:16;;;;;;;10.38;5.95;;;0.60;92.80;;;;;;2088846;28;20190;-69
2022/03/27 03:36:17;;;;;;;14.70;6.20;;;0.70;92.60;;;;;;2088504;28;20193;-69
2022/03/27 03:37:17;;;;;;;13.80;5.77;;;0.70;92.50;;;;;;2088363;28;20462;-69
2022/03/27 03:38:18;;;;;;;14.40;5.93;;;0.70;92.20;;;;;;2088650;28;20550;-69
2022/03/27 03:39:19;;;;;;;15.87;7.07;;;0.80;92.40;;;;;;2088691;28;20186;-69
2022/03/27 03:40:20;;;;;;;13.90;6.50;;;0.70;92.40;;;;;;2088527;28;20180;-69
2022/03/27 03:41:20;;;;;;;15.90;7.03;;;0.70;92.70;;;;;;2087671;28;20215;-68
2022/03/27 03:42:21;;;;;;;13.10;6.13;;;0.70;92.90;;;;;;2088493;28;20188;-69
2022/03/27 03:43:22;;;;;;;11.43;5.80;;;0.70;93.10;;;;;;2088351;28;20177;-69
2022/03/27 03:44:26;;;;;;;11.97;5.70;;;0.70;93.30;;;;;;2088433;28;20212;-69
2022/03/27 03:45:27;;;;;;;14.38;7.03;;;0.80;93.00;;;;;;2088421;28;20256;-69
2022/03/27 03:46:27;;;;;;;11.73;6.47;;;0.70;93.00;;;;;;2088429;28;20761;-69
2022/03/27 03:47:28;;;;;;;14.43;6.00;;;0.70;93.30;;;;;;2088309;28;20733;-69
2022/03/27 03:48:29;;;;;;;13.87;6.50;;;0.60;93.30;;;;;;2088332;28;20606;-69
2022/03/27 03:49:30;;;;;;;12.07;5.75;;;0.60;93.20;;;;;;2089120;28;20183;-68
2022/03/27 03:50:33;;;;;;;17.63;6.57;;;0.60;93.30;;;;;;2088997;28;20187;-69
2022/03/27 03:51:34;;;;;;;12.32;6.22;;;0.60;93.40;;;;;;2088241;28;20190;-68
2022/03/27 03:52:35;;;;;;;12.50;5.75;;;0.50;93.40;;;;;;2089086;28;20199;-69
2022/03/27 03:53:36;;;;;;;13.50;6.40;;;0.50;93.50;;;;;;2089048;28;20184;-69
2022/03/27 03:54:37;;;;;;;9.47;4.90;;;0.50;93.50;;;;;;2088591;28;20206;-69
2022/03/27 03:55:38;;;;;;;13.63;5.90;;;0.50;93.90;;;;;;2088597;28;20176;-69
2022/03/27 03:56:39;;;;;;;11.77;5.82;;;0.40;93.50;;;;;;2088785;28;20426;-69
2022/03/27 03:57:40;;;;;;;15.63;6.40;;;0.50;93.70;;;;;;2088248;28;20293;-69
2022/03/27 03:58:41;;;;;;;14.03;6.20;;;0.40;93.70;;;;;;2088304;28;20212;-69
2022/03/27 03:59:42;;;;;;;13.98;5.90;;;0.40;93.80;;;;;;2088882;28;20191;-68
2022/03/27 04:00:43;;;;;;;11.27;5.70;;;0.40;94.10;;;;;;2088865;28;20219;-68
2022/03/27 04:01:43;;;;;;;12.93;6.33;;;0.30;94.50;;;;;;2088409;28;20218;-68
2022/03/27 04:02:44;;;;;;;12.37;6.13;;;0.30;94.60;;;;;;2088611;28;20225;-69
2022/03/27 04:03:45;;;;;;;14.00;6.67;;;0.30;94.70;;;;;;2088975;28;20176;-69
2022/03/27 04:04:46;;;;;;;13.60;6.37;;;0.30;94.80;;;;;;2088234;28;20207;-68
2022/03/27 04:05:47;;;;;;;10.53;5.30;;;0.30;94.90;;;;;;2088426;28;20180;-68
2022/03/27 04:06:48;;;;;;;11.80;5.50;;;0.30;95.10;;;;;;2088743;28;20175;-69
2022/03/27 04:07:48;;;;;;;12.27;6.67;;;0.30;95.30;;;;;;2088915;28;20726;-69
2022/03/27 04:08:49;;;;;;;14.57;6.30;;;0.30;95.40;;;;;;2088720;28;20666;-69
2022/03/27 04:09:51;;;;;;;19.23;6.67;;;0.20;95.50;;;;;;2088883;28;20186;-69
2022/03/27 04:10:51;;;;;;;13.70;6.00;;;0.30;95.70;;;;;;2088737;28;20188;-69
2022/03/27 04:11:52;;;;;;;13.30;6.63;;;0.20;95.50;;;;;;2088025;28;20195;-69
2022/03/27 04:12:53;;;;;;;12.03;5.80;;;0.20;95.60;;;;;;2088797;28;20543;-69
2022/03/27 04:13:53;;;;;;;14.17;5.67;;;0.20;95.50;;;;;;2079871;28;20192;-68
2022/03/27 04:14:54;;;;;;;13.87;6.23;;;0.20;95.30;;;;;;2071879;28;20204;-69
2022/03/27 04:15:55;;;;;;;12.67;6.13;;;0.20;95.50;;;;;;2088303;28;20189;-69
2022/03/27 04:16:56;;;;;;;16.67;6.30;;;0.20;95.50;;;;;;2090286;28;21038;-69
2022/03/27 04:18:00;;;;;;;11.48;5.28;;;0.20;95.40;;;;;;2090091;28;20181;-69
2022/03/27 04:19:01;;;;;;;14.00;5.80;;;0.20;95.30;;;;;;2089820;28;20613;-69
2022/03/27 04:20:01;;;;;;;13.27;6.13;;;0.20;95.30;;;;;;2090556;28;20260;-68
2022/03/27 04:21:02;;;;;;;17.57;6.57;;;0.20;95.40;;;;;;2090182;28;20758;-69
2022/03/27 04:22:04;;;;;;;14.88;5.78;;;0.20;95.20;;;;;;2090286;28;20179;-69
2022/03/27 04:23:05;;;;;;;18.98;7.15;;;0.20;95.40;;;;;;2090442;28;20659;-70
2022/03/27 04:24:09;;;;;;;15.97;6.30;;;0.20;95.30;;;;;;2090520;28;20271;-68
2022/03/27 04:25:11;;;;;;;15.73;6.97;;;0.10;95.20;;;;;;2089868;28;20214;-69
2022/03/27 04:26:12;;;;;;;12.50;7.00;;;0.10;95.40;;;;;;2089976;28;20186;-68
2022/03/27 04:27:13;;;;;;;12.07;6.13;;;0.10;95.40;;;;;;2090461;28;20190;-69
2022/03/27 04:28:14;;;;;;;12.13;6.37;;;0.10;95.50;;;;;;2090536;28;20222;-69
2022/03/27 04:29:14;;;;;;;14.07;6.67;;;0.20;95.60;;;;;;2089836;28;20613;-69
2022/03/27 04:30:15;;;;;;;15.50;7.77;;;0.20;95.60;;;;;;2089896;28;20756;-69
2022/03/27 04:31:18;;;;;;;17.73;6.43;;;0.20;95.50;;;;;;2089916;28;20271;-68
2022/03/27 04:32:18;;;;;;;14.60;5.97;;;0.20;95.40;;;;;;2089794;28;20186;-69
2022/03/27 04:33:19;;;;;;;20.43;6.20;;;0.20;95.20;;;;;;2089458;28;20695;-69
2022/03/27 04:34:20;;;;;;;14.73;5.97;;;0.20;95.10;;;;;;2090471;28;20618;-69
2022/03/27 04:35:20;;;;;;;10.03;5.90;;;0.20;95.10;;;;;;2090501;28;20209;-68
2022/03/27 04:36:21;;;;;;;16.27;6.30;;;0.10;95.20;;;;;;2089897;28;20202;-69
2022/03/27 04:37:22;;;;;;;13.77;6.57;;;0.10;95.10;;;;;;2089744;28;20206;-68
2022/03/27 04:38:23;;;;;;;13.43;6.03;;;0.00;95.30;;;;;;2089409;28;20176;-68
2022/03/27 04:39:23;;;;;;;13.20;6.30;;;0.00;95.40;;;;;;2090525;28;20183;-68
2022/03/27 04:40:24;;;;;;;16.50;7.00;;;0.00;95.70;;;;;;2090417;28;20180;-69
2022/03/27 04:41:25;;;;;;;13.53;6.10;;;0.10;95.50;;;;;;2089907;28;20271;-68
2022/03/27 04:42:26;;;;;;;12.50;5.73;;;0.10;95.20;;;;;;2090306;28;20179;-69
2022/03/27 04:43:28;;;;;;;12.63;5.90;;;0.10;95.40;;;;;;2090355;28;20544;-69
2022/03/27 04:44:29;;;;;;;16.85;7.00;;;0.10;95.40;;;;;;2089692;28;20208;-69
2022/03/27 04:45:30;;;;;;;14.93;6.07;;;0.20;95.50;;;;;;2089880;28;20734;-69
2022/03/27 04:46:31;;;;;;;13.47;6.23;;;0.40;95.30;;;;;;2090142;28;20211;-68
2022/03/27 04:47:31;;;;;;;13.80;6.13;;;0.40;94.60;;;;;;2090199;28;20191;-68
2022/03/27 04:48:32;;;;;;;12.87;6.30;;;0.40;94.20;;;;;;2089518;28;20237;-69
2022/03/27 04:49:33;;;;;;;13.43;6.07;;;0.50;94.30;;;;;;2089816;28;20187;-68
2022/03/27 04:50:33;;;;;;;12.73;5.93;;;0.50;94.00;;;;;;2090150;28;20172;-69
2022/03/27 04:51:34;;;;;;;13.77;6.60;;;0.60;93.90;;;;;;2089138;28;20235;-69
2022/03/27 04:52:36;;;;;;;15.50;6.47;;;0.60;93.50;;;;;;2089538;28;20250;-69
2022/03/27 04:53:37;;;;;;;14.32;6.32;;;0.60;93.50;;;;;;2090325;28;20188;-68
2022/03/27 04:54:38;;;;;;;12.60;5.70;;;0.70;93.30;;;;;;2089694;28;20215;-68
2022/03/27 04:55:39;;;;;;;12.98;6.65;;;0.60;93.30;;;;;;2089857;28;20180;-68
2022/03/27 04:56:39;;;;;;;14.57;6.90;;;0.60;93.40;;;;;;2090351;28;20208;-69
2022/03/27 04:57:41;;;;;;;18.43;6.90;;;0.60;93.50;;;;;;2090207;28;20207;-69
2022/03/27 04:58:42;;;;;;;15.77;6.70;;;0.60;93.70;;;;;;2089558;28;20176;-68
2022/03/27 04:59:43;;;;;;;15.90;6.63;;;0.60;93.90;;;;;;2089355;28;20271;-69
2022/03/27 05:00:43;;;;;;;14.17;5.87;;;0.50;94.20;;;;;;2090099;28;20244;-69
2022/03/27 05:01:44;;;;;;;13.40;6.17;;;0.50;93.90;;;;;;2089845;28;20643;-68
2022/03/27 05:02:45;;;;;;;11.93;6.17;;;0.50;93.60;;;;;;2090170;28;20202;-69
2022/03/27 05:03:46;;;;;;;9.52;5.07;;;0.40;93.60;;;;;;2090263;28;20211;-69
2022/03/27 05:04:47;;;;;;;15.20;6.33;;;0.40;93.60;;;;;;2089787;28;20249;-69
2022/03/27 05:05:47;;;;;;;21.27;6.40;;;0.40;93.60;;;;;;2089768;28;20186;-68
2022/03/27 05:06:48;;;;;;;14.07;5.47;;;0.30;93.60;;;;;;2089481;28;20861;-69
2022/03/27 05:07:49;;;;;;;13.90;6.57;;;0.30;93.80;;;;;;2090199;28;20546;-68
2022/03/27 05:08:51;;;;;;;12.13;6.17;;;0.20;94.00;;;;;;2089857;28;20553;-68
2022/03/27 05:09:53;;;;;;;13.18;5.90;;;0.20;94.00;;;;;;2089642;28;20662;-69
2022/03/27 05:10:54;;;;;;;16.10;7.07;;;0.20;94.10;;;;;;2081551;28;20192;-69
2022/03/27 05:11:55;;;;;;;15.20;6.20;;;0.20;94.00;;;;;;2081032;28;20238;-69
2022/03/27 05:12:56;;;;;;;13.33;7.07;;;0.20;94.30;;;;;;2089465;28;20180;-69
2022/03/27 05:13:57;;;;;;;12.65;6.72;;;0.20;94.60;;;;;;2089517;28;20208;-68
2022/03/27 05:14:58;;;;;;;13.03;5.80;;;0.20;94.80;;;;;;2089499;28;20206;-68
2022/03/27 05:15:58;;;;;;;16.70;7.40;;;0.20;95.00;;;;;;2090157;28;20194;-69
2022/03/27 05:16:59;;;;;;;14.57;6.33;;;0.20;95.80;;;;;;2091336;28;20179;-69
2022/03/27 05:18:00;;;;;;;16.23;6.27;;;0.20;95.90;;;;;;2091669;28;20249;-68
2022/03/27 05:19:01;;;;;;;12.45;5.85;;;0.20;96.00;;;;;;2091125;28;20180;-69
2022/03/27 05:20:03;;;;;;;13.20;6.00;;;0.20;96.40;;;;;;2090802;28;20198;-68
2022/03/27 05:21:04;;;;;;;13.80;6.72;;;0.20;96.50;;;;;;2091229;28;20187;-68
2022/03/27 05:22:04;;;;;;;18.67;6.43;;;0.20;96.30;;;;;;2088188;28;20651;-68